sensor_id;sensor_type;location;lat;lon;timestamp;P1;durP1;ratioP1;P2;durP2;ratioP2
50393;SDS011;36308;46.312;25.288;2023-06-14T00:00:31;5.10;;;2.75;;
50393;SDS011;36308;46.312;25.288;2023-06-14T00:02:56;3.78;;;2.67;;
50393;SDS011;36308;46.312;25.288;2023-06-14T00:05:23;5.35;;;2.78;;
50393;SDS011;36308;46.312;25.288;2023-06-14T00:07:49;3.72;;;3.03;;
50393;SDS011;36308;46.312;25.288;2023-06-14T00:10:18;4.03;;;2.80;;
50393;SDS011;36308;46.312;25.288;2023-06-14T00:12:44;5.20;;;2.75;;
50393;SDS011;36308;46.312;25.288;2023-06-14T00:15:09;4.15;;;2.55;;
50393;SDS011;36308;46.312;25.288;2023-06-14T00:17:35;5.53;;;3.20;;
50393;SDS011;36308;46.312;25.288;2023-06-14T00:20:02;4.68;;;3.00;;
50393;SDS011;36308;46.312;25.288;2023-06-14T00:22:30;3.72;;;2.92;;
50393;SDS011;36308;46.312;25.288;2023-06-14T00:24:56;5.00;;;3.13;;
50393;SDS011;36308;46.312;25.288;2023-06-14T00:27:22;3.25;;;2.60;;
50393;SDS011;36308;46.312;25.288;2023-06-14T00:29:47;4.85;;;2.88;;
50393;SDS011;36308;46.312;25.288;2023-06-14T00:32:13;4.38;;;2.63;;
50393;SDS011;36308;46.312;25.288;2023-06-14T00:34:38;4.32;;;3.22;;
50393;SDS011;36308;46.312;25.288;2023-06-14T00:37:04;3.55;;;2.70;;
50393;SDS011;36308;46.312;25.288;2023-06-14T00:39:30;3.13;;;2.38;;
50393;SDS011;36308;46.312;25.288;2023-06-14T00:41:55;3.92;;;2.58;;
50393;SDS011;36308;46.312;25.288;2023-06-14T00:44:21;4.18;;;2.40;;
50393;SDS011;36308;46.312;25.288;2023-06-14T00:46:47;4.05;;;2.63;;
50393;SDS011;36308;46.312;25.288;2023-06-14T00:49:15;3.28;;;2.40;;
50393;SDS011;36308;46.312;25.288;2023-06-14T00:51:43;3.65;;;2.80;;
50393;SDS011;36308;46.312;25.288;2023-06-14T00:54:09;4.95;;;2.65;;
50393;SDS011;36308;46.312;25.288;2023-06-14T00:56:36;3.97;;;2.20;;
50393;SDS011;36308;46.312;25.288;2023-06-14T00:59:02;5.80;;;2.88;;
50393;SDS011;36308;46.312;25.288;2023-06-14T01:01:29;3.17;;;2.65;;
50393;SDS011;36308;46.312;25.288;2023-06-14T01:03:58;3.55;;;2.90;;
50393;SDS011;36308;46.312;25.288;2023-06-14T01:12:13;3.75;;;2.92;;
50393;SDS011;36308;46.312;25.288;2023-06-14T01:14:46;5.88;;;3.03;;
50393;SDS011;36308;46.312;25.288;2023-06-14T01:17:13;4.28;;;2.92;;
50393;SDS011;36308;46.312;25.288;2023-06-14T01:19:44;6.15;;;2.72;;
50393;SDS011;36308;46.312;25.288;2023-06-14T01:22:10;4.95;;;2.92;;
50393;SDS011;36308;46.312;25.288;2023-06-14T01:24:36;5.10;;;2.58;;
50393;SDS011;36308;46.312;25.288;2023-06-14T01:27:04;3.42;;;2.28;;
50393;SDS011;36308;46.312;25.288;2023-06-14T01:29:32;4.63;;;2.90;;
50393;SDS011;36308;46.312;25.288;2023-06-14T01:31:58;3.35;;;2.70;;
50393;SDS011;36308;46.312;25.288;2023-06-14T01:34:25;4.53;;;3.15;;
50393;SDS011;36308;46.312;25.288;2023-06-14T01:36:51;5.93;;;3.00;;
50393;SDS011;36308;46.312;25.288;2023-06-14T01:39:19;4.32;;;2.85;;
50393;SDS011;36308;46.312;25.288;2023-06-14T01:41:46;3.08;;;2.70;;
50393;SDS011;36308;46.312;25.288;2023-06-14T01:44:14;4.55;;;3.20;;
50393;SDS011;36308;46.312;25.288;2023-06-14T01:46:42;5.38;;;3.10;;
50393;SDS011;36308;46.312;25.288;2023-06-14T01:49:08;5.68;;;3.10;;
50393;SDS011;36308;46.312;25.288;2023-06-14T01:51:34;4.63;;;3.22;;
50393;SDS011;36308;46.312;25.288;2023-06-14T01:54:00;5.03;;;3.45;;
50393;SDS011;36308;46.312;25.288;2023-06-14T01:56:26;7.50;;;4.85;;
50393;SDS011;36308;46.312;25.288;2023-06-14T01:58:52;5.18;;;4.65;;
50393;SDS011;36308;46.312;25.288;2023-06-14T02:01:19;6.90;;;5.00;;
50393;SDS011;36308;46.312;25.288;2023-06-14T02:03:46;4.70;;;4.07;;
50393;SDS011;36308;46.312;25.288;2023-06-14T02:06:13;5.05;;;3.85;;
50393;SDS011;36308;46.312;25.288;2023-06-14T02:08:41;4.65;;;3.42;;
50393;SDS011;36308;46.312;25.288;2023-06-14T02:11:06;3.65;;;3.03;;
50393;SDS011;36308;46.312;25.288;2023-06-14T02:13:32;3.22;;;2.90;;
50393;SDS011;36308;46.312;25.288;2023-06-14T02:15:57;4.82;;;3.20;;
50393;SDS011;36308;46.312;25.288;2023-06-14T02:18:25;4.35;;;2.95;;
50393;SDS011;36308;46.312;25.288;2023-06-14T02:20:50;4.13;;;3.15;;
50393;SDS011;36308;46.312;25.288;2023-06-14T02:23:16;4.93;;;2.92;;
50393;SDS011;36308;46.312;25.288;2023-06-14T02:25:41;4.00;;;3.20;;
50393;SDS011;36308;46.312;25.288;2023-06-14T02:28:08;4.07;;;3.13;;
50393;SDS011;36308;46.312;25.288;2023-06-14T02:30:33;4.95;;;3.20;;
50393;SDS011;36308;46.312;25.288;2023-06-14T02:32:59;4.43;;;3.20;;
50393;SDS011;36308;46.312;25.288;2023-06-14T02:35:25;5.45;;;3.47;;
50393;SDS011;36308;46.312;25.288;2023-06-14T02:37:51;4.53;;;3.38;;
50393;SDS011;36308;46.312;25.288;2023-06-14T02:40:17;5.90;;;2.90;;
50393;SDS011;36308;46.312;25.288;2023-06-14T02:42:43;7.03;;;3.80;;
50393;SDS011;36308;46.312;25.288;2023-06-14T02:45:09;9.52;;;3.67;;
50393;SDS011;36308;46.312;25.288;2023-06-14T02:47:35;6.22;;;3.35;;
50393;SDS011;36308;46.312;25.288;2023-06-14T02:50:20;4.80;;;3.50;;
50393;SDS011;36308;46.312;25.288;2023-06-14T02:52:46;3.75;;;3.22;;
50393;SDS011;36308;46.312;25.288;2023-06-14T02:55:12;4.45;;;3.05;;
50393;SDS011;36308;46.312;25.288;2023-06-14T02:57:38;4.05;;;3.10;;
50393;SDS011;36308;46.312;25.288;2023-06-14T03:00:03;5.88;;;3.55;;
50393;SDS011;36308;46.312;25.288;2023-06-14T03:02:30;3.55;;;2.88;;
50393;SDS011;36308;46.312;25.288;2023-06-14T03:04:55;5.05;;;3.33;;
50393;SDS011;36308;46.312;25.288;2023-06-14T03:07:26;6.22;;;3.60;;
50393;SDS011;36308;46.312;25.288;2023-06-14T03:09:52;4.85;;;4.20;;
50393;SDS011;36308;46.312;25.288;2023-06-14T03:12:18;5.20;;;3.97;;
50393;SDS011;36308;46.312;25.288;2023-06-14T03:14:43;7.13;;;4.20;;
50393;SDS011;36308;46.312;25.288;2023-06-14T03:17:10;7.53;;;4.10;;
50393;SDS011;36308;46.312;25.288;2023-06-14T03:19:36;5.13;;;3.75;;
50393;SDS011;36308;46.312;25.288;2023-06-14T03:22:01;5.35;;;3.75;;
50393;SDS011;36308;46.312;25.288;2023-06-14T03:24:27;5.60;;;3.22;;
50393;SDS011;36308;46.312;25.288;2023-06-14T03:26:53;4.00;;;3.47;;
50393;SDS011;36308;46.312;25.288;2023-06-14T03:29:19;5.80;;;3.83;;
50393;SDS011;36308;46.312;25.288;2023-06-14T03:31:57;4.90;;;3.85;;
50393;SDS011;36308;46.312;25.288;2023-06-14T03:34:27;8.10;;;3.80;;
50393;SDS011;36308;46.312;25.288;2023-06-14T03:36:52;5.97;;;3.92;;
50393;SDS011;36308;46.312;25.288;2023-06-14T03:39:18;8.95;;;4.88;;
50393;SDS011;36308;46.312;25.288;2023-06-14T03:41:45;6.82;;;5.35;;
50393;SDS011;36308;46.312;25.288;2023-06-14T03:44:10;7.60;;;5.28;;
50393;SDS011;36308;46.312;25.288;2023-06-14T03:46:36;4.35;;;3.65;;
50393;SDS011;36308;46.312;25.288;2023-06-14T03:49:01;4.68;;;3.65;;
50393;SDS011;36308;46.312;25.288;2023-06-14T03:51:28;8.13;;;4.13;;
50393;SDS011;36308;46.312;25.288;2023-06-14T03:53:54;6.95;;;4.00;;
50393;SDS011;36308;46.312;25.288;2023-06-14T03:56:20;5.43;;;3.80;;
50393;SDS011;36308;46.312;25.288;2023-06-14T03:58:46;3.88;;;3.33;;
50393;SDS011;36308;46.312;25.288;2023-06-14T04:01:12;5.47;;;3.90;;
50393;SDS011;36308;46.312;25.288;2023-06-14T04:03:37;5.05;;;4.18;;
50393;SDS011;36308;46.312;25.288;2023-06-14T04:06:05;6.00;;;3.80;;
50393;SDS011;36308;46.312;25.288;2023-06-14T04:08:31;12.25;;;7.18;;
50393;SDS011;36308;46.312;25.288;2023-06-14T04:10:57;10.95;;;6.15;;
50393;SDS011;36308;46.312;25.288;2023-06-14T04:13:22;10.05;;;6.35;;
50393;SDS011;36308;46.312;25.288;2023-06-14T04:15:48;10.35;;;6.65;;
50393;SDS011;36308;46.312;25.288;2023-06-14T04:18:13;10.85;;;6.03;;
50393;SDS011;36308;46.312;25.288;2023-06-14T04:20:39;6.28;;;4.00;;
50393;SDS011;36308;46.312;25.288;2023-06-14T04:23:12;6.40;;;3.85;;
50393;SDS011;36308;46.312;25.288;2023-06-14T04:25:39;7.07;;;4.18;;
50393;SDS011;36308;46.312;25.288;2023-06-14T04:28:05;6.30;;;4.75;;
50393;SDS011;36308;46.312;25.288;2023-06-14T04:30:33;5.82;;;3.88;;
50393;SDS011;36308;46.312;25.288;2023-06-14T04:33:00;8.18;;;4.78;;
50393;SDS011;36308;46.312;25.288;2023-06-14T04:35:26;7.30;;;4.65;;
50393;SDS011;36308;46.312;25.288;2023-06-14T04:37:54;9.82;;;4.00;;
50393;SDS011;36308;46.312;25.288;2023-06-14T04:40:20;6.10;;;4.45;;
50393;SDS011;36308;46.312;25.288;2023-06-14T04:42:45;7.30;;;4.35;;
50393;SDS011;36308;46.312;25.288;2023-06-14T04:45:11;6.93;;;4.57;;
50393;SDS011;36308;46.312;25.288;2023-06-14T04:47:38;5.57;;;4.43;;
50393;SDS011;36308;46.312;25.288;2023-06-14T04:50:03;7.95;;;4.28;;
50393;SDS011;36308;46.312;25.288;2023-06-14T04:52:29;6.68;;;4.25;;
50393;SDS011;36308;46.312;25.288;2023-06-14T04:54:55;10.13;;;6.20;;
50393;SDS011;36308;46.312;25.288;2023-06-14T05:00:05;6.57;;;4.57;;
50393;SDS011;36308;46.312;25.288;2023-06-14T05:02:31;6.35;;;4.22;;
50393;SDS011;36308;46.312;25.288;2023-06-14T05:04:58;7.30;;;4.18;;
50393;SDS011;36308;46.312;25.288;2023-06-14T05:07:24;5.07;;;4.30;;
50393;SDS011;36308;46.312;25.288;2023-06-14T05:09:49;6.38;;;4.38;;
50393;SDS011;36308;46.312;25.288;2023-06-14T05:12:15;7.32;;;4.40;;
50393;SDS011;36308;46.312;25.288;2023-06-14T05:14:43;6.00;;;4.00;;
50393;SDS011;36308;46.312;25.288;2023-06-14T05:17:10;7.30;;;4.50;;
50393;SDS011;36308;46.312;25.288;2023-06-14T05:19:35;7.03;;;4.43;;
50393;SDS011;36308;46.312;25.288;2023-06-14T05:22:01;7.45;;;5.28;;
50393;SDS011;36308;46.312;25.288;2023-06-14T05:24:27;9.40;;;5.00;;
50393;SDS011;36308;46.312;25.288;2023-06-14T05:26:55;6.53;;;4.60;;
50393;SDS011;36308;46.312;25.288;2023-06-14T05:29:21;3.85;;;2.88;;
50393;SDS011;36308;46.312;25.288;2023-06-14T05:31:47;6.35;;;3.25;;
50393;SDS011;36308;46.312;25.288;2023-06-14T05:34:12;7.70;;;3.95;;
50393;SDS011;36308;46.312;25.288;2023-06-14T05:36:37;5.03;;;3.70;;
50393;SDS011;36308;46.312;25.288;2023-06-14T05:39:04;7.45;;;3.80;;
50393;SDS011;36308;46.312;25.288;2023-06-14T05:41:31;5.75;;;3.75;;
50393;SDS011;36308;46.312;25.288;2023-06-14T05:43:56;7.15;;;4.05;;
50393;SDS011;36308;46.312;25.288;2023-06-14T05:46:22;6.32;;;4.32;;
50393;SDS011;36308;46.312;25.288;2023-06-14T05:48:53;6.30;;;4.20;;
50393;SDS011;36308;46.312;25.288;2023-06-14T05:51:20;5.68;;;4.00;;
50393;SDS011;36308;46.312;25.288;2023-06-14T05:53:47;7.50;;;4.72;;
50393;SDS011;36308;46.312;25.288;2023-06-14T05:56:13;7.47;;;4.25;;
50393;SDS011;36308;46.312;25.288;2023-06-14T05:58:40;7.28;;;4.72;;
50393;SDS011;36308;46.312;25.288;2023-06-14T06:01:05;5.35;;;4.28;;
50393;SDS011;36308;46.312;25.288;2023-06-14T06:03:31;5.50;;;4.35;;
50393;SDS011;36308;46.312;25.288;2023-06-14T06:05:57;10.02;;;4.90;;
50393;SDS011;36308;46.312;25.288;2023-06-14T06:08:23;19.40;;;10.80;;
50393;SDS011;36308;46.312;25.288;2023-06-14T06:10:48;32.22;;;16.27;;
50393;SDS011;36308;46.312;25.288;2023-06-14T06:13:14;30.70;;;17.75;;
50393;SDS011;36308;46.312;25.288;2023-06-14T06:15:40;25.10;;;15.10;;
50393;SDS011;36308;46.312;25.288;2023-06-14T06:18:06;18.52;;;14.88;;
50393;SDS011;36308;46.312;25.288;2023-06-14T06:20:31;13.50;;;8.85;;
50393;SDS011;36308;46.312;25.288;2023-06-14T06:22:57;13.20;;;7.72;;
50393;SDS011;36308;46.312;25.288;2023-06-14T06:25:24;8.65;;;6.20;;
50393;SDS011;36308;46.312;25.288;2023-06-14T06:27:51;6.57;;;5.07;;
50393;SDS011;36308;46.312;25.288;2023-06-14T06:30:19;7.07;;;5.43;;
50393;SDS011;36308;46.312;25.288;2023-06-14T06:32:45;7.60;;;4.93;;
50393;SDS011;36308;46.312;25.288;2023-06-14T06:35:11;8.13;;;4.95;;
50393;SDS011;36308;46.312;25.288;2023-06-14T06:37:38;8.00;;;4.97;;
50393;SDS011;36308;46.312;25.288;2023-06-14T06:40:04;7.78;;;5.05;;
50393;SDS011;36308;46.312;25.288;2023-06-14T06:42:31;6.45;;;4.68;;
50393;SDS011;36308;46.312;25.288;2023-06-14T06:44:57;6.93;;;4.13;;
50393;SDS011;36308;46.312;25.288;2023-06-14T06:47:22;7.07;;;4.47;;
50393;SDS011;36308;46.312;25.288;2023-06-14T06:49:48;5.47;;;4.20;;
50393;SDS011;36308;46.312;25.288;2023-06-14T06:52:13;5.60;;;4.15;;
50393;SDS011;36308;46.312;25.288;2023-06-14T06:54:39;6.55;;;4.25;;
50393;SDS011;36308;46.312;25.288;2023-06-14T06:57:05;6.95;;;4.43;;
50393;SDS011;36308;46.312;25.288;2023-06-14T06:59:31;5.22;;;3.83;;
50393;SDS011;36308;46.312;25.288;2023-06-14T07:01:57;6.43;;;4.20;;
50393;SDS011;36308;46.312;25.288;2023-06-14T07:04:23;8.50;;;4.57;;
50393;SDS011;36308;46.312;25.288;2023-06-14T07:06:49;6.55;;;4.30;;
50393;SDS011;36308;46.312;25.288;2023-06-14T07:09:14;7.88;;;3.97;;
50393;SDS011;36308;46.312;25.288;2023-06-14T07:11:43;6.88;;;4.25;;
50393;SDS011;36308;46.312;25.288;2023-06-14T07:14:09;4.10;;;3.60;;
50393;SDS011;36308;46.312;25.288;2023-06-14T07:16:34;5.50;;;3.70;;
50393;SDS011;36308;46.312;25.288;2023-06-14T07:19:01;4.57;;;3.65;;
50393;SDS011;36308;46.312;25.288;2023-06-14T07:21:27;9.52;;;4.10;;
50393;SDS011;36308;46.312;25.288;2023-06-14T07:23:53;6.88;;;3.67;;
50393;SDS011;36308;46.312;25.288;2023-06-14T07:26:19;6.25;;;3.25;;
50393;SDS011;36308;46.312;25.288;2023-06-14T07:28:45;6.20;;;3.05;;
50393;SDS011;36308;46.312;25.288;2023-06-14T07:31:12;6.07;;;3.58;;
50393;SDS011;36308;46.312;25.288;2023-06-14T07:33:39;7.05;;;4.00;;
50393;SDS011;36308;46.312;25.288;2023-06-14T07:36:05;4.72;;;3.25;;
50393;SDS011;36308;46.312;25.288;2023-06-14T07:38:31;4.95;;;2.83;;
50393;SDS011;36308;46.312;25.288;2023-06-14T07:40:56;5.35;;;2.95;;
50393;SDS011;36308;46.312;25.288;2023-06-14T07:43:22;7.43;;;3.22;;
50393;SDS011;36308;46.312;25.288;2023-06-14T07:45:47;4.55;;;3.30;;
50393;SDS011;36308;46.312;25.288;2023-06-14T07:48:13;3.90;;;2.67;;
50393;SDS011;36308;46.312;25.288;2023-06-14T07:50:38;4.78;;;3.05;;
50393;SDS011;36308;46.312;25.288;2023-06-14T07:53:04;4.90;;;3.55;;
50393;SDS011;36308;46.312;25.288;2023-06-14T07:55:29;6.57;;;3.40;;
50393;SDS011;36308;46.312;25.288;2023-06-14T07:57:57;4.07;;;3.10;;
50393;SDS011;36308;46.312;25.288;2023-06-14T08:00:23;9.10;;;3.05;;
50393;SDS011;36308;46.312;25.288;2023-06-14T08:02:49;4.45;;;3.20;;
50393;SDS011;36308;46.312;25.288;2023-06-14T08:05:17;5.45;;;3.30;;
50393;SDS011;36308;46.312;25.288;2023-06-14T08:07:42;13.20;;;3.85;;
50393;SDS011;36308;46.312;25.288;2023-06-14T08:10:08;4.65;;;3.17;;
50393;SDS011;36308;46.312;25.288;2023-06-14T08:12:34;5.22;;;3.08;;
50393;SDS011;36308;46.312;25.288;2023-06-14T08:15:00;3.15;;;2.78;;
50393;SDS011;36308;46.312;25.288;2023-06-14T08:17:26;5.20;;;3.10;;
50393;SDS011;36308;46.312;25.288;2023-06-14T08:19:52;4.78;;;2.95;;
50393;SDS011;36308;46.312;25.288;2023-06-14T08:22:22;5.15;;;2.80;;
50393;SDS011;36308;46.312;25.288;2023-06-14T08:24:49;3.97;;;2.05;;
50393;SDS011;36308;46.312;25.288;2023-06-14T08:27:15;4.00;;;2.60;;
50393;SDS011;36308;46.312;25.288;2023-06-14T08:29:41;4.50;;;2.28;;
50393;SDS011;36308;46.312;25.288;2023-06-14T08:32:06;5.20;;;2.63;;
50393;SDS011;36308;46.312;25.288;2023-06-14T08:34:32;4.18;;;2.80;;
50393;SDS011;36308;46.312;25.288;2023-06-14T08:36:57;4.40;;;2.70;;
50393;SDS011;36308;46.312;25.288;2023-06-14T08:39:23;6.00;;;2.70;;
50393;SDS011;36308;46.312;25.288;2023-06-14T08:41:49;4.95;;;3.38;;
50393;SDS011;36308;46.312;25.288;2023-06-14T08:44:16;3.95;;;2.90;;
50393;SDS011;36308;46.312;25.288;2023-06-14T08:46:41;8.35;;;2.42;;
50393;SDS011;36308;46.312;25.288;2023-06-14T08:49:08;4.38;;;3.08;;
50393;SDS011;36308;46.312;25.288;2023-06-14T08:51:37;6.05;;;2.75;;
50393;SDS011;36308;46.312;25.288;2023-06-14T08:54:05;3.42;;;2.35;;
50393;SDS011;36308;46.312;25.288;2023-06-14T08:56:32;4.22;;;2.78;;
50393;SDS011;36308;46.312;25.288;2023-06-14T08:58:59;4.82;;;2.70;;
50393;SDS011;36308;46.312;25.288;2023-06-14T09:01:30;5.72;;;3.05;;
50393;SDS011;36308;46.312;25.288;2023-06-14T09:03:59;5.55;;;3.35;;
50393;SDS011;36308;46.312;25.288;2023-06-14T09:06:25;4.47;;;2.72;;
50393;SDS011;36308;46.312;25.288;2023-06-14T09:08:53;4.97;;;2.97;;
50393;SDS011;36308;46.312;25.288;2023-06-14T09:11:21;5.85;;;2.72;;
50393;SDS011;36308;46.312;25.288;2023-06-14T09:13:47;3.42;;;2.40;;
50393;SDS011;36308;46.312;25.288;2023-06-14T09:16:13;5.70;;;2.75;;
50393;SDS011;36308;46.312;25.288;2023-06-14T09:18:43;5.80;;;2.50;;
50393;SDS011;36308;46.312;25.288;2023-06-14T09:21:12;4.68;;;2.78;;
50393;SDS011;36308;46.312;25.288;2023-06-14T09:23:42;6.15;;;2.53;;
50393;SDS011;36308;46.312;25.288;2023-06-14T09:26:12;4.05;;;2.42;;
50393;SDS011;36308;46.312;25.288;2023-06-14T09:28:44;6.00;;;2.35;;
50393;SDS011;36308;46.312;25.288;2023-06-14T09:31:14;4.30;;;2.35;;
50393;SDS011;36308;46.312;25.288;2023-06-14T09:33:42;5.43;;;2.40;;
50393;SDS011;36308;46.312;25.288;2023-06-14T09:36:14;7.57;;;2.55;;
50393;SDS011;36308;46.312;25.288;2023-06-14T09:38:41;3.25;;;2.42;;
50393;SDS011;36308;46.312;25.288;2023-06-14T09:41:07;2.05;;;1.83;;
50393;SDS011;36308;46.312;25.288;2023-06-14T09:43:32;3.80;;;2.30;;
50393;SDS011;36308;46.312;25.288;2023-06-14T09:46:02;2.92;;;2.30;;
50393;SDS011;36308;46.312;25.288;2023-06-14T09:48:29;3.63;;;2.05;;
50393;SDS011;36308;46.312;25.288;2023-06-14T09:50:55;5.72;;;2.30;;
50393;SDS011;36308;46.312;25.288;2023-06-14T09:53:24;3.78;;;2.10;;
50393;SDS011;36308;46.312;25.288;2023-06-14T09:55:51;2.30;;;2.10;;
50393;SDS011;36308;46.312;25.288;2023-06-14T09:58:17;3.95;;;1.98;;
50393;SDS011;36308;46.312;25.288;2023-06-14T10:00:45;3.55;;;1.95;;
50393;SDS011;36308;46.312;25.288;2023-06-14T10:03:21;4.90;;;2.10;;
50393;SDS011;36308;46.312;25.288;2023-06-14T10:05:50;3.78;;;1.92;;
50393;SDS011;36308;46.312;25.288;2023-06-14T10:08:17;3.55;;;2.15;;
50393;SDS011;36308;46.312;25.288;2023-06-14T10:10:45;2.60;;;2.15;;
50393;SDS011;36308;46.312;25.288;2023-06-14T10:13:11;3.25;;;1.90;;
50393;SDS011;36308;46.312;25.288;2023-06-14T10:15:41;5.45;;;1.92;;
50393;SDS011;36308;46.312;25.288;2023-06-14T10:20:55;4.07;;;1.52;;
50393;SDS011;36308;46.312;25.288;2023-06-14T10:23:44;2.92;;;2.20;;
50393;SDS011;36308;46.312;25.288;2023-06-14T10:26:17;3.00;;;1.75;;
50393;SDS011;36308;46.312;25.288;2023-06-14T10:29:00;3.67;;;1.77;;
50393;SDS011;36308;46.312;25.288;2023-06-14T10:34:29;5.32;;;1.80;;
50393;SDS011;36308;46.312;25.288;2023-06-14T10:39:32;3.05;;;1.75;;
50393;SDS011;36308;46.312;25.288;2023-06-14T10:42:03;1.60;;;1.42;;
50393;SDS011;36308;46.312;25.288;2023-06-14T10:47:04;2.65;;;1.45;;
50393;SDS011;36308;46.312;25.288;2023-06-14T10:49:39;1.92;;;1.60;;
50393;SDS011;36308;46.312;25.288;2023-06-14T10:52:16;2.17;;;1.70;;
50393;SDS011;36308;46.312;25.288;2023-06-14T10:55:02;2.88;;;1.35;;
50393;SDS011;36308;46.312;25.288;2023-06-14T10:57:36;1.63;;;1.50;;
50393;SDS011;36308;46.312;25.288;2023-06-14T11:00:04;1.85;;;1.58;;
50393;SDS011;36308;46.312;25.288;2023-06-14T11:05:26;2.38;;;1.45;;
50393;SDS011;36308;46.312;25.288;2023-06-14T11:12:58;2.20;;;1.63;;
50393;SDS011;36308;46.312;25.288;2023-06-14T11:15:27;4.53;;;1.60;;
50393;SDS011;36308;46.312;25.288;2023-06-14T11:17:54;2.78;;;1.33;;
50393;SDS011;36308;46.312;25.288;2023-06-14T11:20:24;1.55;;;1.10;;
50393;SDS011;36308;46.312;25.288;2023-06-14T11:22:51;1.75;;;1.33;;
50393;SDS011;36308;46.312;25.288;2023-06-14T11:25:17;3.38;;;1.23;;
50393;SDS011;36308;46.312;25.288;2023-06-14T11:27:43;2.63;;;1.50;;
50393;SDS011;36308;46.312;25.288;2023-06-14T11:30:09;1.73;;;1.55;;
50393;SDS011;36308;46.312;25.288;2023-06-14T11:32:39;2.35;;;1.42;;
50393;SDS011;36308;46.312;25.288;2023-06-14T11:35:06;2.20;;;1.30;;
50393;SDS011;36308;46.312;25.288;2023-06-14T11:37:32;1.52;;;1.42;;
50393;SDS011;36308;46.312;25.288;2023-06-14T11:40:02;2.47;;;1.45;;
50393;SDS011;36308;46.312;25.288;2023-06-14T11:42:33;2.65;;;1.40;;
50393;SDS011;36308;46.312;25.288;2023-06-14T11:44:59;2.10;;;1.60;;
50393;SDS011;36308;46.312;25.288;2023-06-14T11:47:24;2.28;;;1.52;;
50393;SDS011;36308;46.312;25.288;2023-06-14T11:49:58;1.75;;;1.30;;
50393;SDS011;36308;46.312;25.288;2023-06-14T11:52:24;2.80;;;1.40;;
50393;SDS011;36308;46.312;25.288;2023-06-14T11:54:49;3.30;;;1.40;;
50393;SDS011;36308;46.312;25.288;2023-06-14T11:57:15;4.07;;;1.30;;
50393;SDS011;36308;46.312;25.288;2023-06-14T11:59:43;2.38;;;1.40;;
50393;SDS011;36308;46.312;25.288;2023-06-14T12:02:19;1.92;;;1.67;;
50393;SDS011;36308;46.312;25.288;2023-06-14T12:04:47;2.92;;;1.27;;
50393;SDS011;36308;46.312;25.288;2023-06-14T12:07:16;3.65;;;1.23;;
50393;SDS011;36308;46.312;25.288;2023-06-14T12:12:22;1.45;;;1.30;;
50393;SDS011;36308;46.312;25.288;2023-06-14T12:14:50;2.10;;;1.20;;
50393;SDS011;36308;46.312;25.288;2023-06-14T12:17:17;1.70;;;1.40;;
50393;SDS011;36308;46.312;25.288;2023-06-14T12:19:43;2.95;;;1.35;;
50393;SDS011;36308;46.312;25.288;2023-06-14T12:22:10;1.33;;;1.10;;
50393;SDS011;36308;46.312;25.288;2023-06-14T12:24:37;3.42;;;1.35;;
50393;SDS011;36308;46.312;25.288;2023-06-14T12:27:04;1.48;;;1.30;;
50393;SDS011;36308;46.312;25.288;2023-06-14T12:29:30;2.10;;;1.50;;
50393;SDS011;36308;46.312;25.288;2023-06-14T12:31:57;3.63;;;1.30;;
50393;SDS011;36308;46.312;25.288;2023-06-14T12:34:22;1.65;;;1.38;;
50393;SDS011;36308;46.312;25.288;2023-06-14T12:36:49;2.15;;;1.20;;
50393;SDS011;36308;46.312;25.288;2023-06-14T12:39:15;1.55;;;1.20;;
50393;SDS011;36308;46.312;25.288;2023-06-14T12:41:41;1.60;;;1.13;;
50393;SDS011;36308;46.312;25.288;2023-06-14T12:44:07;1.23;;;1.10;;
50393;SDS011;36308;46.312;25.288;2023-06-14T12:46:33;2.42;;;1.10;;
50393;SDS011;36308;46.312;25.288;2023-06-14T12:49:00;1.77;;;1.27;;
50393;SDS011;36308;46.312;25.288;2023-06-14T12:51:26;1.75;;;1.20;;
50393;SDS011;36308;46.312;25.288;2023-06-14T12:53:51;1.40;;;1.23;;
50393;SDS011;36308;46.312;25.288;2023-06-14T12:56:17;1.27;;;1.10;;
50393;SDS011;36308;46.312;25.288;2023-06-14T12:58:43;1.85;;;1.30;;
50393;SDS011;36308;46.312;25.288;2023-06-14T13:01:08;1.80;;;1.40;;
50393;SDS011;36308;46.312;25.288;2023-06-14T13:03:34;4.82;;;1.67;;
50393;SDS011;36308;46.312;25.288;2023-06-14T13:06:00;2.70;;;1.58;;
50393;SDS011;36308;46.312;25.288;2023-06-14T13:08:27;1.30;;;1.20;;
50393;SDS011;36308;46.312;25.288;2023-06-14T13:10:53;4.18;;;1.52;;
50393;SDS011;36308;46.312;25.288;2023-06-14T13:13:19;1.60;;;1.23;;
50393;SDS011;36308;46.312;25.288;2023-06-14T13:15:45;1.25;;;1.15;;
50393;SDS011;36308;46.312;25.288;2023-06-14T13:18:14;3.00;;;1.20;;
50393;SDS011;36308;46.312;25.288;2023-06-14T13:20:40;3.67;;;1.35;;
50393;SDS011;36308;46.312;25.288;2023-06-14T13:23:06;2.25;;;1.33;;
50393;SDS011;36308;46.312;25.288;2023-06-14T13:25:35;1.20;;;1.10;;
50393;SDS011;36308;46.312;25.288;2023-06-14T13:28:03;2.63;;;1.20;;
50393;SDS011;36308;46.312;25.288;2023-06-14T13:30:29;1.50;;;1.30;;
50393;SDS011;36308;46.312;25.288;2023-06-14T13:32:55;1.83;;;1.02;;
50393;SDS011;36308;46.312;25.288;2023-06-14T13:35:21;1.77;;;1.30;;
50393;SDS011;36308;46.312;25.288;2023-06-14T13:37:48;2.63;;;1.58;;
50393;SDS011;36308;46.312;25.288;2023-06-14T13:40:13;2.28;;;1.20;;
50393;SDS011;36308;46.312;25.288;2023-06-14T13:42:39;1.67;;;1.10;;
50393;SDS011;36308;46.312;25.288;2023-06-14T13:45:05;1.92;;;1.33;;
50393;SDS011;36308;46.312;25.288;2023-06-14T13:47:32;1.02;;;0.93;;
50393;SDS011;36308;46.312;25.288;2023-06-14T13:49:57;1.33;;;1.23;;
50393;SDS011;36308;46.312;25.288;2023-06-14T13:52:23;1.17;;;1.05;;
50393;SDS011;36308;46.312;25.288;2023-06-14T13:54:49;1.92;;;1.25;;
50393;SDS011;36308;46.312;25.288;2023-06-14T13:57:15;2.58;;;1.10;;
50393;SDS011;36308;46.312;25.288;2023-06-14T13:59:41;2.25;;;1.00;;
50393;SDS011;36308;46.312;25.288;2023-06-14T14:02:09;1.10;;;1.00;;
50393;SDS011;36308;46.312;25.288;2023-06-14T14:04:34;1.58;;;1.15;;
50393;SDS011;36308;46.312;25.288;2023-06-14T14:07:01;2.03;;;1.20;;
50393;SDS011;36308;46.312;25.288;2023-06-14T14:09:28;0.90;;;0.80;;
50393;SDS011;36308;46.312;25.288;2023-06-14T14:11:54;1.45;;;0.90;;
50393;SDS011;36308;46.312;25.288;2023-06-14T14:14:20;1.65;;;0.93;;
50393;SDS011;36308;46.312;25.288;2023-06-14T14:16:46;1.98;;;1.00;;
50393;SDS011;36308;46.312;25.288;2023-06-14T14:19:12;1.95;;;0.98;;
50393;SDS011;36308;46.312;25.288;2023-06-14T14:21:37;2.55;;;1.00;;
50393;SDS011;36308;46.312;25.288;2023-06-14T14:24:03;1.10;;;1.00;;
50393;SDS011;36308;46.312;25.288;2023-06-14T14:26:29;1.48;;;0.80;;
50393;SDS011;36308;46.312;25.288;2023-06-14T14:28:54;1.70;;;1.35;;
50393;SDS011;36308;46.312;25.288;2023-06-14T14:31:20;1.88;;;1.02;;
50393;SDS011;36308;46.312;25.288;2023-06-14T14:33:45;1.70;;;1.17;;
50393;SDS011;36308;46.312;25.288;2023-06-14T14:36:11;1.33;;;1.00;;
50393;SDS011;36308;46.312;25.288;2023-06-14T14:38:36;1.20;;;0.98;;
50393;SDS011;36308;46.312;25.288;2023-06-14T14:41:02;1.30;;;0.82;;
50393;SDS011;36308;46.312;25.288;2023-06-14T14:43:27;2.58;;;1.10;;
50393;SDS011;36308;46.312;25.288;2023-06-14T14:45:55;1.88;;;1.50;;
50393;SDS011;36308;46.312;25.288;2023-06-14T14:48:21;2.25;;;0.95;;
50393;SDS011;36308;46.312;25.288;2023-06-14T14:50:47;1.20;;;1.00;;
50393;SDS011;36308;46.312;25.288;2023-06-14T14:53:13;1.55;;;1.00;;
50393;SDS011;36308;46.312;25.288;2023-06-14T14:55:41;3.13;;;1.10;;
50393;SDS011;36308;46.312;25.288;2023-06-14T14:58:07;3.42;;;1.40;;
50393;SDS011;36308;46.312;25.288;2023-06-14T15:00:33;1.00;;;0.90;;